Time;durP1;ratioP1;P1;durP2;ratioP2;P2;SDS_P1;SDS_P2;PMS_P1;PMS_P2;Temp;Humidity;BMP_temperature;BMP_pressure;BME280_temperature;BME280_humidity;BME280_pressure;Samples;Min_cycle;Max_cycle;Signal;HPM_P1;HPM_P2
2024/02/05 00:01:50;;;;;;;13.70;3.55;;;;;;;;;;5051212;28;20029;-72
2024/02/05 00:04:36;;;;;;;12.05;5.00;;;;;;;;;;5054759;28;20031;-72
2024/02/05 00:07:21;;;;;;;17.25;3.67;;;;;;;;;;5053734;28;20024;-72
2024/02/05 00:10:08;;;;;;;10.35;3.63;;;;;;;;;;5040477;28;20049;-72
2024/02/05 00:12:53;;;;;;;13.70;4.32;;;;;;;;;;5043868;28;20036;-72
2024/02/05 00:15:39;;;;;;;9.73;3.67;;;;;;;;;;5040533;28;20061;-72
2024/02/05 00:18:25;;;;;;;20.55;4.68;;;;;;;;;;5037588;28;20042;-72
2024/02/05 00:21:11;;;;;;;16.55;4.20;;;;;;;;;;5030738;28;20086;-72
2024/02/05 00:23:56;;;;;;;16.33;3.58;;;;;;;;;;5046323;28;20057;-72
2024/02/05 00:26:42;;;;;;;15.43;3.50;;;;;;;;;;5050733;28;20025;-72
2024/02/05 00:29:28;;;;;;;13.60;3.72;;;;;;;;;;5055325;28;20064;-72
2024/02/05 00:32:13;;;;;;;18.23;3.75;;;;;;;;;;5054903;28;20021;-72
2024/02/05 00:34:59;;;;;;;16.33;3.42;;;;;;;;;;5023607;28;20083;-72
2024/02/05 00:37:45;;;;;;;22.58;5.07;;;;;;;;;;5034872;28;20028;-72
2024/02/05 00:40:23;;;;;;;;;;;;;;;;;;5095657;23;20070;-72
2024/02/05 00:43:08;;;;;;;19.35;3.30;;;;;;;;;;5079498;28;19912;-72
2024/02/05 00:45:54;;;;;;;6.78;2.65;;;;;;;;;;5095339;28;20020;-72
2024/02/05 00:48:40;;;;;;;11.18;2.88;;;;;;;;;;5075500;28;20086;-72
2024/02/05 00:51:26;;;;;;;12.00;4.28;;;;;;;;;;5059096;28;20120;-72
2024/02/05 00:54:11;;;;;;;10.75;3.22;;;;;;;;;;5074327;28;20561;-72
2024/02/05 00:56:58;;;;;;;11.07;2.65;;;;;;;;;;5059838;28;20078;-73
2024/02/05 00:59:44;;;;;;;7.78;3.00;;;;;;;;;;5073600;28;20375;-72
2024/02/05 01:02:34;;;;;;;11.35;3.22;;;;;;;;;;5059843;28;20116;-72
2024/02/05 01:05:19;;;;;;;13.65;3.15;;;;;;;;;;5058056;28;20048;-72
2024/02/05 01:08:05;;;;;;;9.23;3.65;;;;;;;;;;5068992;28;20108;-72
2024/02/05 01:10:52;;;;;;;12.35;2.90;;;;;;;;;;5058982;28;20035;-72
2024/02/05 01:13:38;;;;;;;20.20;3.58;;;;;;;;;;5057727;28;20409;-72
2024/02/05 01:16:24;;;;;;;7.32;2.63;;;;;;;;;;5039883;28;20120;-72
2024/02/05 01:19:09;;;;;;;17.15;3.75;;;;;;;;;;5052648;28;20029;-72
2024/02/05 01:21:55;;;;;;;16.17;2.72;;;;;;;;;;5065169;28;20452;-72
2024/02/05 01:24:40;;;;;;;17.08;3.33;;;;;;;;;;5059225;28;20174;-72
2024/02/05 01:27:26;;;;;;;13.63;3.25;;;;;;;;;;5038996;28;20029;-72
2024/02/05 01:30:13;;;;;;;9.73;3.00;;;;;;;;;;5059180;28;20020;-71
2024/02/05 01:32:59;;;;;;;22.65;4.15;;;;;;;;;;5044782;28;20534;-72
2024/02/05 01:35:44;;;;;;;16.90;3.95;;;;;;;;;;5059279;28;20037;-72
2024/02/05 01:38:30;;;;;;;8.48;2.83;;;;;;;;;;5052767;28;20032;-72
2024/02/05 01:41:16;;;;;;;23.10;3.42;;;;;;;;;;5069097;28;20035;-72
2024/02/05 01:44:02;;;;;;;14.50;3.00;;;;;;;;;;5071623;28;20070;-72
2024/02/05 01:46:47;;;;;;;14.60;3.47;;;;;;;;;;5067213;28;20033;-72
2024/02/05 01:49:34;;;;;;;23.80;3.63;;;;;;;;;;5053240;28;20029;-72
2024/02/05 01:52:19;;;;;;;17.92;3.72;;;;;;;;;;5039476;28;20033;-72
2024/02/05 01:55:06;;;;;;;11.13;2.33;;;;;;;;;;5068749;28;20405;-72
2024/02/05 01:57:53;;;;;;;26.85;4.63;;;;;;;;;;5072747;28;20020;-72
2024/02/05 02:00:39;;;;;;;14.57;3.17;;;;;;;;;;5058896;28;20114;-72
2024/02/05 02:03:26;;;;;;;9.02;3.33;;;;;;;;;;5058844;28;20099;-72
2024/02/05 02:06:11;;;;;;;16.95;3.58;;;;;;;;;;5056863;28;20033;-72
2024/02/05 02:08:57;;;;;;;25.65;4.57;;;;;;;;;;5067066;28;20032;-72
2024/02/05 02:11:43;;;;;;;14.75;3.35;;;;;;;;;;5067939;28;20417;-72
2024/02/05 02:14:28;;;;;;;11.88;3.65;;;;;;;;;;5072419;28;20029;-72
2024/02/05 02:17:15;;;;;;;30.38;5.15;;;;;;;;;;5058046;28;20103;-72
2024/02/05 02:20:01;;;;;;;20.85;4.28;;;;;;;;;;5037811;28;20031;-72
2024/02/05 02:22:51;;;;;;;17.30;3.95;;;;;;;;;;5038491;28;20033;-72
2024/02/05 02:25:40;;;;;;;11.77;3.50;;;;;;;;;;5037562;28;20021;-72
2024/02/05 02:28:26;;;;;;;14.10;3.78;;;;;;;;;;5024561;28;20058;-72
2024/02/05 02:31:13;;;;;;;30.55;4.93;;;;;;;;;;5038478;28;20390;-72
2024/02/05 02:34:12;;;;;;;17.13;4.20;;;;;;;;;;5053634;28;20025;-72
2024/02/05 02:37:03;;;;;;;16.10;5.05;;;;;;;;;;5037286;28;20025;-71
2024/02/05 02:40:01;;;;;;;18.30;3.63;;;;;;;;;;5038340;28;20025;-72
2024/02/05 02:42:48;;;;;;;19.45;3.33;;;;;;;;;;5039009;28;20478;-72
2024/02/05 02:45:34;;;;;;;15.40;3.50;;;;;;;;;;5053216;28;20057;-72
2024/02/05 02:48:20;;;;;;;18.98;3.53;;;;;;;;;;5037754;28;20562;-72
2024/02/05 02:51:05;;;;;;;23.02;3.88;;;;;;;;;;5052525;28;20029;-72
2024/02/05 02:53:51;;;;;;;11.77;3.60;;;;;;;;;;5038731;28;20048;-72
2024/02/05 02:56:38;;;;;;;30.70;3.88;;;;;;;;;;5051810;28;20025;-72
2024/02/05 02:59:24;;;;;;;21.77;4.40;;;;;;;;;;5037761;28;20442;-72
2024/02/05 03:02:09;;;;;;;25.63;4.47;;;;;;;;;;5053299;28;20094;-72
2024/02/05 03:04:55;;;;;;;14.05;2.80;;;;;;;;;;5052323;28;20029;-72
2024/02/05 03:07:41;;;;;;;16.02;3.88;;;;;;;;;;5051877;28;20036;-72
2024/02/05 03:10:26;;;;;;;11.32;3.45;;;;;;;;;;5053178;28;20025;-72
2024/02/05 03:13:12;;;;;;;15.73;4.00;;;;;;;;;;5052554;28;20459;-72
2024/02/05 03:15:58;;;;;;;25.42;3.80;;;;;;;;;;5052041;28;20113;-72
2024/02/05 03:18:44;;;;;;;28.60;4.22;;;;;;;;;;5052108;28;20040;-72
2024/02/05 03:21:29;;;;;;;28.88;5.82;;;;;;;;;;5052120;28;20025;-71
2024/02/05 03:24:15;;;;;;;15.05;3.53;;;;;;;;;;5052759;28;20163;-72
2024/02/05 03:27:01;;;;;;;30.23;5.40;;;;;;;;;;5038635;28;20017;-72
2024/02/05 03:29:46;;;;;;;18.38;4.95;;;;;;;;;;5037951;28;20029;-72
2024/02/05 03:32:32;;;;;;;26.77;5.03;;;;;;;;;;5052070;28;20029;-72
2024/02/05 03:35:18;;;;;;;16.00;3.92;;;;;;;;;;5037759;28;20029;-72
2024/02/05 03:38:03;;;;;;;20.80;4.35;;;;;;;;;;5037305;28;20106;-72
2024/02/05 03:40:49;;;;;;;28.13;3.20;;;;;;;;;;5052160;28;20083;-72
2024/02/05 03:43:35;;;;;;;18.70;3.45;;;;;;;;;;5051980;28;20032;-72
2024/02/05 03:46:20;;;;;;;16.25;2.95;;;;;;;;;;5052401;28;20501;-72
2024/02/05 03:49:06;;;;;;;26.73;4.53;;;;;;;;;;5061069;28;20032;-71
2024/02/05 03:51:52;;;;;;;26.40;3.72;;;;;;;;;;5061392;28;20099;-72
2024/02/05 03:54:43;;;;;;;16.80;4.20;;;;;;;;;;5061308;28;20032;-72
2024/02/05 03:57:29;;;;;;;26.15;4.22;;;;;;;;;;5074527;28;20416;-71
2024/02/05 04:00:20;;;;;;;15.55;3.33;;;;;;;;;;5057977;28;20052;-71
2024/02/05 04:03:06;;;;;;;20.55;3.90;;;;;;;;;;5071407;28;20493;-71
2024/02/05 04:05:51;;;;;;;25.33;4.10;;;;;;;;;;5069731;28;20029;-72
2024/02/05 04:08:37;;;;;;;32.13;4.18;;;;;;;;;;5075253;28;20029;-71
2024/02/05 04:11:22;;;;;;;25.13;5.30;;;;;;;;;;5074837;28;20028;-71
2024/02/05 04:14:10;;;;;;;10.13;2.95;;;;;;;;;;5074884;28;20017;-72
2024/02/05 04:16:55;;;;;;;33.85;3.85;;;;;;;;;;5074946;28;20150;-72
2024/02/05 04:19:43;;;;;;;17.13;4.25;;;;;;;;;;5046932;28;20504;-72
2024/02/05 04:22:29;;;;;;;26.13;4.22;;;;;;;;;;5060245;28;20028;-72
2024/02/05 04:25:14;;;;;;;17.05;3.95;;;;;;;;;;5064163;28;20074;-71
2024/02/05 04:28:02;;;;;;;31.45;3.92;;;;;;;;;;5073833;28;20036;-72
2024/02/05 04:30:50;;;;;;;20.40;3.55;;;;;;;;;;5059886;28;20064;-72
2024/02/05 04:33:35;;;;;;;23.27;4.13;;;;;;;;;;5062966;28;20024;-71
2024/02/05 04:36:21;;;;;;;13.32;3.75;;;;;;;;;;5043267;28;20024;-72
2024/02/05 04:39:10;;;;;;;21.45;4.15;;;;;;;;;;5071329;28;20028;-72
2024/02/05 04:41:56;;;;;;;18.92;3.70;;;;;;;;;;5074665;28;20020;-72
2024/02/05 04:44:42;;;;;;;25.67;5.15;;;;;;;;;;5073761;28;20588;-72
2024/02/05 04:47:27;;;;;;;19.30;4.40;;;;;;;;;;5069633;28;20064;-72
2024/02/05 04:50:13;;;;;;;13.25;3.80;;;;;;;;;;5054853;28;20057;-72
2024/02/05 04:52:59;;;;;;;22.45;3.50;;;;;;;;;;5053951;28;20193;-72
2024/02/05 04:55:45;;;;;;;15.70;3.42;;;;;;;;;;5058280;28;20021;-72
2024/02/05 04:58:30;;;;;;;15.38;3.92;;;;;;;;;;5046584;28;20078;-72
2024/02/05 05:01:16;;;;;;;16.33;3.95;;;;;;;;;;5073885;28;20138;-71
2024/02/05 05:04:02;;;;;;;18.95;3.50;;;;;;;;;;5058525;28;20575;-72
2024/02/05 05:06:47;;;;;;;9.27;3.15;;;;;;;;;;5060080;28;20028;-72
2024/02/05 05:09:33;;;;;;;24.00;4.45;;;;;;;;;;5073954;28;20024;-72
2024/02/05 05:12:19;;;;;;;12.73;3.10;;;;;;;;;;5060130;28;20020;-72
2024/02/05 05:15:05;;;;;;;12.15;2.80;;;;;;;;;;5053518;28;20017;-72
2024/02/05 05:17:50;;;;;;;14.05;3.00;;;;;;;;;;5054670;28;20104;-71
2024/02/05 05:20:36;;;;;;;6.13;1.92;;;;;;;;;;5054945;28;20056;-72
2024/02/05 05:23:21;;;;;;;4.47;2.47;;;;;;;;;;5056643;28;20402;-71
2024/02/05 05:26:07;;;;;;;6.93;2.58;;;;;;;;;;5070813;28;20097;-72
2024/02/05 05:28:53;;;;;;;7.82;2.22;;;;;;;;;;5074106;28;20028;-72
2024/02/05 05:31:38;;;;;;;9.98;2.25;;;;;;;;;;5060107;28;20393;-72
2024/02/05 05:34:24;;;;;;;3.75;1.70;;;;;;;;;;5066618;28;20017;-73
2024/02/05 05:37:10;;;;;;;5.38;2.70;;;;;;;;;;5052818;28;20091;-72
2024/02/05 05:39:56;;;;;;;16.10;2.50;;;;;;;;;;5053495;28;20025;-72
2024/02/05 05:42:41;;;;;;;6.75;1.83;;;;;;;;;;5053598;28;20036;-72
2024/02/05 05:45:29;;;;;;;10.98;2.35;;;;;;;;;;5053875;28;20028;-72
2024/02/05 05:48:15;;;;;;;4.43;1.67;;;;;;;;;;5038795;28;20478;-72
2024/02/05 05:51:00;;;;;;;2.47;0.93;;;;;;;;;;5053255;28;20052;-72
2024/02/05 05:53:46;;;;;;;4.10;1.50;;;;;;;;;;5053729;28;20109;-72
2024/02/05 05:56:32;;;;;;;5.25;1.58;;;;;;;;;;5054121;28;20389;-72
2024/02/05 05:59:20;;;;;;;1.88;1.40;;;;;;;;;;5054157;28;20401;-72
2024/02/05 06:02:06;;;;;;;3.25;1.25;;;;;;;;;;5026727;28;20029;-72
2024/02/05 06:04:51;;;;;;;2.42;1.45;;;;;;;;;;5053918;28;20064;-72
2024/02/05 06:07:37;;;;;;;3.28;1.30;;;;;;;;;;5054384;28;20021;-72
2024/02/05 06:10:23;;;;;;;1.98;1.50;;;;;;;;;;5040099;28;20017;-72
2024/02/05 06:13:08;;;;;;;2.90;1.45;;;;;;;;;;5053225;28;20398;-71
2024/02/05 06:15:54;;;;;;;1.85;1.23;;;;;;;;;;5053733;28;20032;-72
2024/02/05 06:18:40;;;;;;;1.75;0.95;;;;;;;;;;5039421;28;20033;-72
2024/02/05 06:21:25;;;;;;;1.88;1.08;;;;;;;;;;5038888;28;20036;-72
2024/02/05 06:24:11;;;;;;;2.03;1.40;;;;;;;;;;5052779;28;20024;-72
2024/02/05 06:27:02;;;;;;;3.80;1.65;;;;;;;;;;5053375;28;20394;-72
2024/02/05 06:29:47;;;;;;;3.97;1.70;;;;;;;;;;5053088;28;20033;-72
2024/02/05 06:32:33;;;;;;;6.55;3.08;;;;;;;;;;5053340;28;20028;-72
2024/02/05 06:35:19;;;;;;;7.63;2.92;;;;;;;;;;5053126;28;20035;-72
2024/02/05 06:38:05;;;;;;;9.52;2.88;;;;;;;;;;5038547;28;20036;-72
2024/02/05 06:40:51;;;;;;;10.70;3.67;;;;;;;;;;5052861;28;20040;-72
2024/02/05 06:43:39;;;;;;;8.70;3.63;;;;;;;;;;5053753;28;20089;-72
2024/02/05 06:46:26;;;;;;;15.43;5.43;;;;;;;;;;5024800;28;20025;-72
2024/02/05 06:49:11;;;;;;;26.42;8.23;;;;;;;;;;5052013;28;20028;-72
2024/02/05 06:52:01;;;;;;;40.00;7.32;;;;;;;;;;5053121;28;20017;-72
2024/02/05 06:54:47;;;;;;;38.97;8.18;;;;;;;;;;5054491;28;20017;-72
2024/02/05 06:57:34;;;;;;;48.20;9.55;;;;;;;;;;5052139;28;20028;-72
2024/02/05 07:00:20;;;;;;;54.50;11.43;;;;;;;;;;5023767;28;20032;-72
2024/02/05 07:03:05;;;;;;;49.38;9.15;;;;;;;;;;5052052;28;20036;-72
2024/02/05 07:05:51;;;;;;;64.45;9.45;;;;;;;;;;5052030;28;20094;-72
2024/02/05 07:08:36;;;;;;;42.78;8.32;;;;;;;;;;5052668;28;20024;-72
2024/02/05 07:11:24;;;;;;;64.75;12.30;;;;;;;;;;5038973;28;20382;-72
2024/02/05 07:14:10;;;;;;;53.05;9.75;;;;;;;;;;5052669;28;20025;-71
2024/02/05 07:16:56;;;;;;;55.75;9.88;;;;;;;;;;5052586;28;20025;-72
2024/02/05 07:19:41;;;;;;;49.47;10.10;;;;;;;;;;5052496;28;20482;-72
2024/02/05 07:22:28;;;;;;;64.32;9.55;;;;;;;;;;5052365;28;20103;-72
2024/02/05 07:25:15;;;;;;;66.53;11.35;;;;;;;;;;5028889;28;20025;-72
2024/02/05 07:28:00;;;;;;;57.75;10.68;;;;;;;;;;5055934;28;20071;-71
2024/02/05 07:30:46;;;;;;;53.25;9.95;;;;;;;;;;5056241;28;20021;-72
2024/02/05 07:33:32;;;;;;;50.60;9.15;;;;;;;;;;5057014;28;20083;-72
2024/02/05 07:36:18;;;;;;;54.75;9.77;;;;;;;;;;5056576;28;20025;-72
2024/02/05 07:39:07;;;;;;;53.50;10.63;;;;;;;;;;5041700;28;20071;-72
2024/02/05 07:41:53;;;;;;;60.25;10.40;;;;;;;;;;5040861;28;20036;-72
2024/02/05 07:44:39;;;;;;;56.00;11.35;;;;;;;;;;5040698;28;20394;-72
2024/02/05 07:47:24;;;;;;;47.90;8.32;;;;;;;;;;5055546;28;20048;-72
2024/02/05 07:50:10;;;;;;;52.42;8.60;;;;;;;;;;5042092;28;20076;-72
2024/02/05 07:52:56;;;;;;;65.68;12.60;;;;;;;;;;5056136;28;20131;-72
2024/02/05 07:55:41;;;;;;;52.67;10.27;;;;;;;;;;5054590;28;20028;-73
2024/02/05 07:58:27;;;;;;;47.45;12.00;;;;;;;;;;5055351;28;20021;-72
2024/02/05 08:01:13;;;;;;;61.47;9.93;;;;;;;;;;5055216;28;20100;-72
2024/02/05 08:03:58;;;;;;;60.17;10.60;;;;;;;;;;5055974;28;20451;-72
2024/02/05 08:06:44;;;;;;;49.28;10.05;;;;;;;;;;5054833;28;20051;-72
2024/02/05 08:09:30;;;;;;;66.38;11.20;;;;;;;;;;5041429;28;20567;-72
2024/02/05 08:12:16;;;;;;;50.40;10.20;;;;;;;;;;5055219;28;20025;-72
2024/02/05 08:15:03;;;;;;;56.00;10.38;;;;;;;;;;5027582;28;20067;-72
2024/02/05 08:17:48;;;;;;;77.30;11.90;;;;;;;;;;5039483;28;20029;-72
2024/02/05 08:20:34;;;;;;;59.88;10.63;;;;;;;;;;5055062;28;20478;-72
2024/02/05 08:23:19;;;;;;;47.97;10.57;;;;;;;;;;5054758;28;20091;-72
2024/02/05 08:26:05;;;;;;;53.88;8.68;;;;;;;;;;5040497;28;20028;-72
2024/02/05 08:28:51;;;;;;;65.57;11.70;;;;;;;;;;5040676;28;20030;-72
2024/02/05 08:31:37;;;;;;;60.78;12.45;;;;;;;;;;5055982;28;20016;-72
2024/02/05 08:34:22;;;;;;;52.75;9.15;;;;;;;;;;5038345;28;20444;-72
2024/02/05 08:37:08;;;;;;;46.00;9.52;;;;;;;;;;5054658;28;20107;-72
2024/02/05 08:39:54;;;;;;;52.83;10.05;;;;;;;;;;5042498;28;20464;-71
2024/02/05 08:42:40;;;;;;;49.53;9.07;;;;;;;;;;5072437;28;20032;-72
2024/02/05 08:45:27;;;;;;;53.53;9.70;;;;;;;;;;5068959;28;20409;-72
2024/02/05 08:48:12;;;;;;;53.90;9.52;;;;;;;;;;5067685;28;20111;-72
2024/02/05 08:50:58;;;;;;;48.30;8.98;;;;;;;;;;5067097;28;20086;-72
2024/02/05 08:53:44;;;;;;;51.65;9.52;;;;;;;;;;5059676;28;20019;-73
2024/02/05 08:56:29;;;;;;;45.35;10.23;;;;;;;;;;5059869;28;20405;-72
2024/02/05 08:59:15;;;;;;;45.20;9.55;;;;;;;;;;5073957;28;20020;-72
2024/02/05 09:02:00;;;;;;;39.63;8.35;;;;;;;;;;5074279;28;20051;-73
2024/02/05 09:04:46;;;;;;;46.08;11.05;;;;;;;;;;5059355;28;20028;-72
2024/02/05 09:07:32;;;;;;;38.85;8.93;;;;;;;;;;5073858;28;20504;-72
2024/02/05 09:10:19;;;;;;;38.90;10.45;;;;;;;;;;5074223;28;20024;-72
2024/02/05 09:13:04;;;;;;;47.63;9.32;;;;;;;;;;5059406;28;20074;-72
2024/02/05 09:15:50;;;;;;;35.95;8.70;;;;;;;;;;5073641;28;20107;-72
2024/02/05 09:18:37;;;;;;;41.95;8.65;;;;;;;;;;5073130;28;20056;-72
2024/02/05 09:21:22;;;;;;;35.10;6.53;;;;;;;;;;5046476;28;20035;-72
2024/02/05 09:24:08;;;;;;;31.52;6.93;;;;;;;;;;5073901;28;20477;-72
2024/02/05 09:26:54;;;;;;;38.78;7.80;;;;;;;;;;5073208;28;20028;-72
2024/02/05 09:29:39;;;;;;;25.15;6.88;;;;;;;;;;5072873;28;20113;-72
2024/02/05 09:32:25;;;;;;;33.55;7.80;;;;;;;;;;5055641;28;20478;-72
2024/02/05 09:35:12;;;;;;;31.42;8.52;;;;;;;;;;5070716;28;20016;-72
2024/02/05 09:37:58;;;;;;;35.85;9.30;;;;;;;;;;5072678;28;20032;-72
2024/02/05 09:40:44;;;;;;;41.72;8.43;;;;;;;;;;5072715;28;20031;-72
2024/02/05 09:43:33;;;;;;;41.15;8.70;;;;;;;;;;5072889;28;20162;-72
2024/02/05 09:46:19;;;;;;;37.78;7.65;;;;;;;;;;5058618;28;20086;-72
2024/02/05 09:49:05;;;;;;;38.20;8.95;;;;;;;;;;5074792;28;20029;-72
2024/02/05 09:51:51;;;;;;;40.58;8.43;;;;;;;;;;5078744;22;20056;-72
2024/02/05 09:54:40;;;;;;;37.80;8.30;;;;;;;;;;5073785;28;20512;-72
2024/02/05 09:57:29;;;;;;;42.00;8.90;;;;;;;;;;5070420;28;20484;-72
2024/02/05 10:00:15;;;;;;;50.92;9.27;;;;;;;;;;5067324;28;20027;-72
2024/02/05 10:03:01;;;;;;;32.63;8.10;;;;;;;;;;5071223;28;20128;-72
2024/02/05 10:05:47;;;;;;;46.30;9.10;;;;;;;;;;5070697;28;20485;-72
2024/02/05 10:08:33;;;;;;;65.15;10.98;;;;;;;;;;5064853;28;20115;-72
2024/02/05 10:11:20;;;;;;;40.75;9.48;;;;;;;;;;5055855;28;20048;-73
2024/02/05 10:14:06;;;;;;;44.63;9.13;;;;;;;;;;5059183;28;20105;-72
2024/02/05 10:16:52;;;;;;;45.22;10.55;;;;;;;;;;5054516;28;20024;-72
2024/02/05 10:19:38;;;;;;;39.08;8.38;;;;;;;;;;5051182;28;20027;-73
2024/02/05 10:22:23;;;;;;;38.38;9.90;;;;;;;;;;5051942;28;20166;-72
2024/02/05 10:25:11;;;;;;;53.15;9.07;;;;;;;;;;5051133;28;20066;-72
2024/02/05 10:28:00;;;;;;;48.22;10.52;;;;;;;;;;5070066;28;20049;-72
2024/02/05 10:30:46;;;;;;;48.35;9.05;;;;;;;;;;5065604;28;20028;-72
2024/02/05 10:33:31;;;;;;;51.70;9.48;;;;;;;;;;5058685;28;20371;-72
2024/02/05 10:36:19;;;;;;;33.28;10.80;;;;;;;;;;5051911;28;20435;-72
2024/02/05 10:39:05;;;;;;;40.47;8.55;;;;;;;;;;5054035;28;20017;-72
2024/02/05 10:41:52;;;;;;;25.83;8.18;;;;;;;;;;5070351;28;20051;-72
2024/02/05 10:44:38;;;;;;;38.17;8.55;;;;;;;;;;5069916;28;20062;-72
2024/02/05 10:47:24;;;;;;;42.92;8.35;;;;;;;;;;5071833;28;20029;-72
2024/02/05 10:50:13;;;;;;;32.38;8.98;;;;;;;;;;5070327;28;20020;-72
2024/02/05 10:52:59;;;;;;;44.45;8.88;;;;;;;;;;5079478;28;20021;-72
2024/02/05 10:55:47;;;;;;;43.53;10.40;;;;;;;;;;5071765;28;20021;-72
2024/02/05 10:58:33;;;;;;;60.67;10.07;;;;;;;;;;5069692;28;20478;-72
2024/02/05 11:01:19;;;;;;;44.38;9.68;;;;;;;;;;5069941;28;20055;-72
2024/02/05 11:04:05;;;;;;;51.60;10.82;;;;;;;;;;5070793;28;20036;-72
2024/02/05 11:06:52;;;;;;;45.38;8.60;;;;;;;;;;5071782;28;20025;-72
2024/02/05 11:09:38;;;;;;;32.17;8.40;;;;;;;;;;5069921;28;20090;-72
2024/02/05 11:12:27;;;;;;;36.85;10.65;;;;;;;;;;5069790;28;20044;-72
2024/02/05 11:15:19;;;;;;;39.05;8.15;;;;;;;;;;5071076;28;20016;-72
2024/02/05 11:18:12;;;;;;;42.97;8.80;;;;;;;;;;5069857;28;20494;-72
2024/02/05 11:20:59;;;;;;;38.80;9.50;;;;;;;;;;5069724;28;20099;-72
2024/02/05 11:23:46;;;;;;;42.30;9.38;;;;;;;;;;5066338;28;20446;-72
2024/02/05 11:26:32;;;;;;;39.58;8.02;;;;;;;;;;5068956;28;20029;-72
2024/02/05 11:29:24;;;;;;;32.03;8.00;;;;;;;;;;5070251;28;20023;-72
2024/02/05 11:32:10;;;;;;;38.35;8.23;;;;;;;;;;5069493;28;20032;-72
2024/02/05 11:34:55;;;;;;;49.55;9.57;;;;;;;;;;5070337;28;20111;-72
2024/02/05 11:37:43;;;;;;;49.17;12.20;;;;;;;;;;5072309;28;20035;-72
2024/02/05 11:40:30;;;;;;;39.08;10.20;;;;;;;;;;5071620;28;20475;-72
2024/02/05 11:43:25;;;;;;;45.25;11.20;;;;;;;;;;5071689;28;20079;-72
2024/02/05 11:46:10;;;;;;;34.65;9.50;;;;;;;;;;5070670;28;20051;-72
2024/02/05 11:48:57;;;;;;;50.78;10.18;;;;;;;;;;5070757;28;20028;-72
2024/02/05 11:51:43;;;;;;;39.42;10.68;;;;;;;;;;5069755;28;20048;-72
2024/02/05 11:54:29;;;;;;;47.53;11.13;;;;;;;;;;5071748;28;20016;-72
2024/02/05 11:57:15;;;;;;;41.85;9.40;;;;;;;;;;5070824;28;20025;-72
2024/02/05 12:00:01;;;;;;;33.78;8.18;;;;;;;;;;5071197;28;20037;-72
2024/02/05 12:02:47;;;;;;;43.25;11.68;;;;;;;;;;5069062;28;20035;-72
2024/02/05 12:05:34;;;;;;;37.47;10.65;;;;;;;;;;5051842;28;20029;-72
2024/02/05 12:08:20;;;;;;;36.45;10.70;;;;;;;;;;5050016;28;20556;-72
2024/02/05 12:11:06;;;;;;;33.92;10.85;;;;;;;;;;5068113;28;20028;-72
2024/02/05 12:13:56;;;;;;;45.10;11.35;;;;;;;;;;5073325;28;20025;-72
2024/02/05 12:16:42;;;;;;;48.95;9.30;;;;;;;;;;5071815;28;20075;-72
2024/02/05 12:19:27;;;;;;;54.80;10.85;;;;;;;;;;5073297;28;20508;-72
2024/02/05 12:22:14;;;;;;;51.03;12.45;;;;;;;;;;5067987;28;20024;-72
2024/02/05 12:25:00;;;;;;;37.10;9.90;;;;;;;;;;5073589;28;20021;-72
2024/02/05 12:27:47;;;;;;;48.03;10.77;;;;;;;;;;5063546;28;20017;-72
2024/02/05 12:30:32;;;;;;;36.72;14.00;;;;;;;;;;5053334;28;20100;-72
2024/02/05 12:33:18;;;;;;;42.00;10.95;;;;;;;;;;5060517;28;20021;-72
2024/02/05 12:36:09;;;;;;;44.97;11.68;;;;;;;;;;5074570;28;20028;-72
2024/02/05 12:38:56;;;;;;;38.80;10.68;;;;;;;;;;5075045;28;20032;-72
2024/02/05 12:41:43;;;;;;;61.00;14.30;;;;;;;;;;5053151;28;20086;-72
2024/02/05 12:44:29;;;;;;;46.83;10.38;;;;;;;;;;5053625;28;20025;-72
2024/02/05 12:47:14;;;;;;;46.70;9.95;;;;;;;;;;5055119;28;20044;-72
2024/02/05 12:50:00;;;;;;;58.97;12.20;;;;;;;;;;5053356;28;20028;-72
2024/02/05 12:52:46;;;;;;;46.97;11.32;;;;;;;;;;5071544;28;20047;-72
2024/02/05 12:55:33;;;;;;;47.15;10.45;;;;;;;;;;5063435;28;20566;-72
2024/02/05 12:58:19;;;;;;;48.20;9.90;;;;;;;;;;5073671;28;20073;-72
2024/02/05 13:01:05;;;;;;;48.53;12.05;;;;;;;;;;5071963;28;20460;-72
2024/02/05 13:03:50;;;;;;;44.25;9.02;;;;;;;;;;5069713;28;20013;-72
2024/02/05 13:06:36;;;;;;;46.97;10.85;;;;;;;;;;5072883;28;20044;-72
2024/02/05 13:09:22;;;;;;;46.50;10.35;;;;;;;;;;5073256;28;20405;-72
2024/02/05 13:12:08;;;;;;;47.17;10.65;;;;;;;;;;5073184;28;20397;-72
2024/02/05 13:14:54;;;;;;;53.30;12.50;;;;;;;;;;5058828;28;20109;-72
2024/02/05 13:17:42;;;;;;;39.90;9.70;;;;;;;;;;5071480;28;20048;-72
2024/02/05 13:20:29;;;;;;;49.40;14.98;;;;;;;;;;5072804;28;20103;-72
2024/02/05 13:23:15;;;;;;;36.03;14.05;;;;;;;;;;5062242;28;20441;-72
2024/02/05 13:26:05;;;;;;;44.13;10.02;;;;;;;;;;5052339;28;20021;-72
2024/02/05 13:28:50;;;;;;;57.55;11.50;;;;;;;;;;5058735;28;20021;-73
2024/02/05 13:31:36;;;;;;;42.22;9.50;;;;;;;;;;5072593;28;20021;-72
2024/02/05 13:34:26;;;;;;;59.17;12.30;;;;;;;;;;5065224;28;20013;-72
2024/02/05 13:37:12;;;;;;;40.30;8.88;;;;;;;;;;5052597;28;20136;-72
2024/02/05 13:39:57;;;;;;;51.92;10.25;;;;;;;;;;5068039;28;20024;-72
2024/02/05 13:42:47;;;;;;;46.10;11.13;;;;;;;;;;5073570;28;20020;-72
2024/02/05 13:45:32;;;;;;;35.80;9.00;;;;;;;;;;5070331;28;20064;-72
2024/02/05 13:48:18;;;;;;;45.08;8.80;;;;;;;;;;5053155;28;20021;-72
2024/02/05 13:51:04;;;;;;;58.95;10.30;;;;;;;;;;5052081;28;20075;-72
2024/02/05 13:53:49;;;;;;;45.97;9.20;;;;;;;;;;5068772;28;20029;-72
2024/02/05 13:56:35;;;;;;;45.53;9.98;;;;;;;;;;5071678;28;20506;-73
2024/02/05 13:59:21;;;;;;;49.25;11.82;;;;;;;;;;5069828;28;20086;-72
2024/02/05 14:02:06;;;;;;;34.60;9.90;;;;;;;;;;5072328;28;20026;-73
2024/02/05 14:04:52;;;;;;;33.72;9.63;;;;;;;;;;5071391;28;20021;-73
2024/02/05 14:07:38;;;;;;;40.10;10.38;;;;;;;;;;5066093;28;20028;-71
2024/02/05 14:10:24;;;;;;;32.53;9.05;;;;;;;;;;5069836;28;20055;-71
2024/02/05 14:13:09;;;;;;;47.20;9.05;;;;;;;;;;5069464;28;20505;-71
2024/02/05 14:15:55;;;;;;;42.75;8.27;;;;;;;;;;5063414;28;20036;-71
2024/02/05 14:18:42;;;;;;;44.95;11.40;;;;;;;;;;5068909;28;20157;-72
2024/02/05 14:21:28;;;;;;;53.35;12.07;;;;;;;;;;5055470;28;20040;-71
2024/02/05 14:24:14;;;;;;;54.28;10.45;;;;;;;;;;5070281;28;20431;-71
2024/02/05 14:27:00;;;;;;;31.40;8.85;;;;;;;;;;5066485;28;20028;-71
2024/02/05 14:29:46;;;;;;;38.17;8.88;;;;;;;;;;5069579;28;20036;-71
2024/02/05 14:32:31;;;;;;;46.08;11.45;;;;;;;;;;5066553;28;20033;-70
2024/02/05 14:35:17;;;;;;;31.73;8.65;;;;;;;;;;5067126;28;20021;-71
2024/02/05 14:38:03;;;;;;;41.63;10.32;;;;;;;;;;5068524;28;20493;-71
2024/02/05 14:40:49;;;;;;;56.45;14.23;;;;;;;;;;5065491;28;20036;-70
2024/02/05 14:43:35;;;;;;;46.65;10.35;;;;;;;;;;5064964;28;20033;-71
2024/02/05 14:46:21;;;;;;;38.78;9.77;;;;;;;;;;5070924;28;20082;-70
2024/02/05 14:49:06;;;;;;;41.92;9.80;;;;;;;;;;5071225;28;20020;-70
2024/02/05 14:51:52;;;;;;;47.72;11.32;;;;;;;;;;5068712;28;20147;-70
2024/02/05 14:54:37;;;;;;;38.00;7.75;;;;;;;;;;5068217;28;20063;-70
2024/02/05 14:57:23;;;;;;;32.35;10.00;;;;;;;;;;5066875;28;20021;-71
2024/02/05 15:00:09;;;;;;;36.38;7.70;;;;;;;;;;5069512;28;20031;-71
2024/02/05 15:02:55;;;;;;;49.55;9.20;;;;;;;;;;5066278;28;20503;-71
2024/02/05 15:05:41;;;;;;;49.38;8.27;;;;;;;;;;5068327;28;20103;-72
2024/02/05 15:08:27;;;;;;;24.08;9.07;;;;;;;;;;5074316;28;20024;-70
2024/02/05 15:11:12;;;;;;;44.83;8.73;;;;;;;;;;5068950;28;20078;-71
2024/02/05 15:13:58;;;;;;;24.08;8.07;;;;;;;;;;5067853;28;20029;-70
2024/02/05 15:16:44;;;;;;;29.48;8.43;;;;;;;;;;5069110;28;20503;-70
2024/02/05 15:19:29;;;;;;;37.42;8.93;;;;;;;;;;5066215;28;20021;-71
2024/02/05 15:22:15;;;;;;;27.63;7.15;;;;;;;;;;5063226;28;20072;-70
2024/02/05 15:25:01;;;;;;;30.55;7.40;;;;;;;;;;5068083;28;20021;-70
2024/02/05 15:27:46;;;;;;;31.15;8.57;;;;;;;;;;5069504;28;20032;-70
2024/02/05 15:30:33;;;;;;;44.33;7.53;;;;;;;;;;5063235;28;20150;-70
2024/02/05 15:33:19;;;;;;;32.80;7.72;;;;;;;;;;5069029;28;20024;-71
2024/02/05 15:36:05;;;;;;;32.83;6.75;;;;;;;;;;5061997;28;20017;-70
2024/02/05 15:38:50;;;;;;;28.58;5.82;;;;;;;;;;5068606;28;20032;-70
2024/02/05 15:41:37;;;;;;;38.03;8.35;;;;;;;;;;5068676;28;20440;-69
2024/02/05 15:44:24;;;;;;;39.35;8.20;;;;;;;;;;5063922;28;20037;-70
2024/02/05 15:47:09;;;;;;;24.45;7.18;;;;;;;;;;5073265;28;20027;-71
2024/02/05 15:49:55;;;;;;;42.90;8.85;;;;;;;;;;5070393;28;20115;-70
2024/02/05 15:52:41;;;;;;;42.35;7.78;;;;;;;;;;5150442;22;20052;-72
2024/02/05 15:55:27;;;;;;;49.08;8.50;;;;;;;;;;5060064;28;20125;-71
2024/02/05 15:58:15;;;;;;;44.50;11.82;;;;;;;;;;5066226;28;20052;-72
2024/02/05 16:01:00;;;;;;;40.05;10.18;;;;;;;;;;5067190;28;20024;-72
2024/02/05 16:03:47;;;;;;;39.13;11.90;;;;;;;;;;5032239;28;20040;-71
2024/02/05 16:06:33;;;;;;;41.67;9.60;;;;;;;;;;5038002;28;20036;-71
2024/02/05 16:09:19;;;;;;;43.55;8.18;;;;;;;;;;5049032;28;20024;-72
2024/02/05 16:12:05;;;;;;;30.35;7.68;;;;;;;;;;5032355;28;20032;-71
2024/02/05 16:14:50;;;;;;;31.38;8.27;;;;;;;;;;5049032;28;20078;-71
2024/02/05 16:17:36;;;;;;;31.15;9.88;;;;;;;;;;5045243;28;20056;-72
2024/02/05 16:20:22;;;;;;;31.25;7.05;;;;;;;;;;5048619;28;20103;-72